createdAt,value
2023-02-02T05:04:16.824Z,-84
2023-02-02T05:06:45.001Z,-91
2023-02-02T05:09:13.019Z,-90
2023-02-02T05:11:44.470Z,-90
2023-02-02T05:14:13.082Z,-89
2023-02-02T05:16:41.139Z,-90
2023-02-02T05:19:12.593Z,-90
2023-02-02T05:21:42.066Z,-89
2023-02-02T05:24:10.680Z,-90
2023-02-02T05:26:38.946Z,-90
2023-02-02T05:29:09.158Z,-90
2023-02-02T05:31:37.341Z,-90
2023-02-02T05:34:06.867Z,-90
2023-02-02T05:36:34.965Z,-90
2023-02-02T05:39:05.454Z,-90
2023-02-02T05:41:33.928Z,-90
2023-02-02T05:44:02.041Z,-90
2023-02-02T05:46:30.193Z,-90
2023-02-02T05:48:59.456Z,-90
2023-02-02T05:51:29.901Z,-90
2023-02-02T05:54:00.618Z,-90
2023-02-02T05:56:30.343Z,-90
2023-02-02T05:58:58.901Z,-90
2023-02-02T06:01:27.260Z,-90
2023-02-02T06:03:55.324Z,-90
2023-02-02T06:06:23.395Z,-90
2023-02-02T06:08:51.405Z,-90
2023-02-02T06:11:20.013Z,-90
2023-02-02T06:13:49.391Z,-90
2023-02-02T06:16:17.483Z,-90
2023-02-02T06:18:45.863Z,-90
2023-02-02T06:21:14.089Z,-90
2023-02-02T06:23:45.657Z,-90
2023-02-02T06:26:13.744Z,-90
2023-02-02T06:28:41.773Z,-90
2023-02-02T06:31:12.418Z,-90
2023-02-02T06:33:40.541Z,-90
2023-02-02T06:36:09.057Z,-90
2023-02-02T06:38:37.070Z,-90
2023-02-02T06:41:07.316Z,-90
2023-02-02T06:43:35.442Z,-90
2023-02-02T06:46:03.565Z,-90
2023-02-02T06:48:33.049Z,-89
2023-02-02T06:51:01.240Z,-90
2023-02-02T06:53:29.507Z,-90
2023-02-02T06:55:58.211Z,-91
2023-02-02T06:58:26.215Z,-90
2023-02-02T07:00:54.647Z,-90
2023-02-02T07:03:23.174Z,-90
2023-02-02T07:05:52.616Z,-90
2023-02-02T07:08:20.709Z,-90
2023-02-02T07:11:12.048Z,-90
2023-02-02T07:13:36.862Z,-90
2023-02-02T07:16:05.229Z,-90
2023-02-02T07:18:33.645Z,-91
2023-02-02T07:21:03.029Z,-90
2023-02-02T07:23:31.603Z,-90
2023-02-02T07:26:04.001Z,-90
2023-02-02T07:28:32.455Z,-90
2023-02-02T07:31:01.464Z,-90
2023-02-02T07:33:29.558Z,-90
2023-02-02T07:35:57.612Z,-90
2023-02-02T07:38:27.029Z,-90
2023-02-02T07:40:55.049Z,-90
2023-02-02T07:43:23.142Z,-90
2023-02-02T07:45:51.248Z,-90
2023-02-02T07:48:19.342Z,-90
2023-02-02T07:50:47.437Z,-90
2023-02-02T07:53:15.613Z,-90
2023-02-02T07:55:45.016Z,-90
2023-02-02T07:58:13.065Z,-90
2023-02-02T08:00:41.119Z,-90
2023-02-02T08:03:12.201Z,-91
2023-02-02T08:05:40.328Z,-90
2023-02-02T08:08:08.425Z,-90
2023-02-02T08:10:36.480Z,-91
2023-02-02T08:13:05.932Z,-90
2023-02-02T08:15:33.977Z,-90
2023-02-02T08:18:01.999Z,-91
2023-02-02T08:20:30.063Z,-90
2023-02-02T08:22:58.121Z,-91
2023-02-02T08:25:26.512Z,-90
2023-02-02T08:27:55.097Z,-90
2023-02-02T08:30:24.586Z,-90
2023-02-02T08:32:52.681Z,-89
2023-02-02T08:35:21.828Z,-90
2023-02-02T08:37:50.023Z,-90
2023-02-02T08:40:35.295Z,-90
2023-02-02T08:43:03.701Z,-90
2023-02-02T08:46:12.771Z,-90
2023-02-02T08:48:21.713Z,-90
2023-02-02T08:50:54.776Z,-90
2023-02-02T08:53:23.555Z,-90
2023-02-02T08:55:59.566Z,-90
2023-02-02T08:58:28.177Z,-88
2023-02-02T09:01:05.930Z,-89
2023-02-02T09:03:42.188Z,-89
2023-02-02T09:06:14.294Z,-89
2023-02-02T09:08:43.732Z,-90
2023-02-02T09:11:13.704Z,-88
2023-02-02T09:13:42.522Z,-91
2023-02-02T09:16:13.159Z,-90
2023-02-02T09:18:41.817Z,-89
2023-02-02T09:21:11.366Z,-91
2023-02-02T09:23:41.477Z,-89
2023-02-02T09:26:13.813Z,-90
2023-02-02T09:28:43.108Z,-91
2023-02-02T09:31:12.872Z,-91
2023-02-02T09:33:41.458Z,-90
2023-02-02T09:36:10.959Z,-90
2023-02-02T09:38:39.803Z,-90
2023-02-02T09:41:47.221Z,-91
2023-02-02T09:44:21.213Z,-91
2023-02-02T09:46:59.822Z,-90
2023-02-02T09:49:34.969Z,-89
2023-02-02T09:52:06.427Z,-90
2023-02-02T09:54:38.155Z,-90
2023-02-02T09:57:11.119Z,-89
2023-02-02T09:59:41.928Z,-89
2023-02-02T10:02:16.910Z,-90
2023-02-02T10:04:47.312Z,-89
2023-02-02T10:07:18.791Z,-89
2023-02-02T10:09:50.779Z,-90
2023-02-02T10:12:26.998Z,-89
2023-02-02T10:14:58.874Z,-89
2023-02-02T10:17:38.992Z,-91
2023-02-02T10:20:19.119Z,-87
2023-02-02T10:22:48.635Z,-88
2023-02-02T10:25:17.699Z,-89
2023-02-02T10:27:51.251Z,-89
2023-02-02T10:30:21.356Z,-89
2023-02-02T10:33:01.138Z,-88
2023-02-02T10:35:40.369Z,-88
2023-02-02T10:38:17.235Z,-88
2023-02-02T10:40:52.111Z,-88
2023-02-02T10:43:49.522Z,-89
2023-02-02T10:46:21.541Z,-89
2023-02-02T10:48:56.003Z,-89
2023-02-02T10:51:27.832Z,-89
2023-02-02T10:53:58.573Z,-90
2023-02-02T10:56:30.781Z,-89
2023-02-02T10:59:02.847Z,-88
2023-02-02T11:01:31.066Z,-89
2023-02-02T11:04:17.834Z,-88
2023-02-02T11:06:52.111Z,-89
2023-02-02T11:09:22.723Z,-89
2023-02-02T11:11:53.676Z,-87
2023-02-02T11:14:30.380Z,-89
2023-02-02T11:17:03.377Z,-89
2023-02-02T11:19:34.641Z,-91
2023-02-02T11:22:03.633Z,-88
2023-02-02T11:24:36.591Z,-89
2023-02-02T11:27:06.757Z,-88
2023-02-02T11:29:43.368Z,-89
2023-02-02T11:32:38.601Z,-89
2023-02-02T11:35:19.609Z,-88
2023-02-02T11:38:09.868Z,-87
2023-02-02T11:40:39.571Z,-90
2023-02-02T11:43:17.146Z,-89
2023-02-02T11:45:49.465Z,-91
2023-02-02T11:48:19.043Z,-88
2023-02-02T11:50:50.395Z,-89
2023-02-02T11:53:26.194Z,-88
2023-02-02T11:55:55.204Z,-86
2023-02-02T11:58:31.283Z,-87
2023-02-02T12:01:01.757Z,-88
2023-02-02T12:03:36.179Z,-88
2023-02-02T12:06:20.204Z,-88
2023-02-02T12:08:48.274Z,-89
2023-02-02T12:11:27.385Z,-89
2023-02-02T12:14:06.906Z,-90
2023-02-02T12:16:45.108Z,-90
2023-02-02T12:19:29.590Z,-90
2023-02-02T12:22:04.141Z,-88
2023-02-02T12:24:36.229Z,-88
2023-02-02T12:27:13.401Z,-88
2023-02-02T12:29:52.999Z,-89
2023-02-02T12:32:30.064Z,-89
2023-02-02T12:35:06.886Z,-92
2023-02-02T12:37:46.338Z,-91
2023-02-02T12:40:31.234Z,-91
2023-02-02T12:43:12.525Z,-90
2023-02-02T12:45:53.041Z,-90
2023-02-02T12:48:32.926Z,-90
2023-02-02T12:51:13.442Z,-89
2023-02-02T12:54:33.082Z,-90
2023-02-02T12:56:52.484Z,-90
2023-02-02T12:59:39.220Z,-91
2023-02-02T13:02:18.362Z,-89
2023-02-02T13:05:01.627Z,-89
2023-02-02T13:07:48.689Z,-87
2023-02-02T13:10:23.805Z,-87
2023-02-02T13:12:55.167Z,-87
2023-02-02T13:15:24.990Z,-87
2023-02-02T13:17:56.266Z,-88
2023-02-02T13:20:37.514Z,-88
2023-02-02T13:23:11.412Z,-88
2023-02-02T13:25:50.449Z,-88
2023-02-02T13:28:30.815Z,-88
2023-02-02T13:31:00.734Z,-88
2023-02-02T13:33:32.086Z,-87
2023-02-02T13:36:03.506Z,-87
2023-02-02T13:38:34.279Z,-88
2023-02-02T13:41:08.751Z,-88
2023-02-02T13:43:44.444Z,-88
2023-02-02T13:46:22.524Z,-89
2023-02-02T13:49:01.364Z,-89
2023-02-02T13:51:55.105Z,-90
2023-02-02T13:55:02.743Z,-89
2023-02-02T13:58:04.265Z,-89
2023-02-02T14:00:35.478Z,-88
2023-02-02T14:03:06.113Z,-89
2023-02-02T14:05:35.915Z,-89
2023-02-02T14:08:08.962Z,-88
2023-02-02T14:10:38.453Z,-89
2023-02-02T14:13:29.296Z,-88
2023-02-02T14:15:59.119Z,-88
2023-02-02T14:18:54.534Z,-88
2023-02-02T14:21:59.290Z,-88
2023-02-02T14:24:42.103Z,-89
2023-02-02T14:27:43.422Z,-88
2023-02-02T14:30:28.572Z,-89
2023-02-02T14:33:28.075Z,-89
2023-02-02T14:36:03.402Z,-88
2023-02-02T14:39:08.278Z,-88
2023-02-02T14:42:13.548Z,-89
2023-02-02T14:45:07.898Z,-89
2023-02-02T14:48:01.939Z,-83
2023-02-02T14:50:42.980Z,-84
2023-02-02T14:53:24.155Z,-85
2023-02-02T14:56:02.126Z,-83
2023-02-02T14:58:38.985Z,-84
2023-02-02T15:01:14.131Z,-86
2023-02-02T15:03:53.121Z,-85
2023-02-02T15:06:36.572Z,-85
2023-02-02T15:09:42.645Z,-86
2023-02-02T15:12:31.432Z,-85
2023-02-02T15:15:08.687Z,-84
2023-02-02T15:17:53.527Z,-86
2023-02-02T15:20:28.404Z,-86
2023-02-02T15:23:00.998Z,-86
2023-02-02T15:25:34.178Z,-84
2023-02-02T15:28:09.832Z,-84
2023-02-02T15:30:40.158Z,-85
2023-02-02T15:33:16.824Z,-83
2023-02-02T15:35:46.820Z,-83
2023-02-02T15:38:17.700Z,-82
2023-02-02T15:40:46.258Z,-85
2023-02-02T15:43:15.023Z,-86
2023-02-02T15:45:45.785Z,-86
2023-02-02T15:48:26.940Z,-86
2023-02-02T15:50:57.984Z,-85
2023-02-02T15:53:29.139Z,-85
2023-02-02T15:55:59.253Z,-86
2023-02-02T15:58:32.515Z,-86
2023-02-02T16:01:03.722Z,-85
2023-02-02T16:03:47.713Z,-86
2023-02-02T16:06:19.017Z,-85
2023-02-02T16:08:48.239Z,-84
2023-02-02T16:11:18.271Z,-85
2023-02-02T16:13:58.012Z,-86
2023-02-02T16:16:28.244Z,-86
2023-02-02T16:19:18.223Z,-85
2023-02-02T16:21:52.288Z,-87
2023-02-02T16:24:24.176Z,-86
2023-02-02T16:26:55.772Z,-87
2023-02-02T16:29:24.284Z,-86
2023-02-02T16:31:52.949Z,-86
2023-02-02T16:34:46.730Z,-86
2023-02-02T16:37:18.342Z,-85
2023-02-02T16:39:46.654Z,-86
2023-02-02T16:42:26.250Z,-85
2023-02-02T16:44:54.802Z,-85
2023-02-02T16:47:35.772Z,-87
2023-02-02T16:50:20.620Z,-86
2023-02-02T16:53:03.429Z,-85
2023-02-02T16:55:49.405Z,-86
2023-02-02T16:58:22.031Z,-86
2023-02-02T17:01:13.500Z,-85
2023-02-02T17:03:49.053Z,-86
2023-02-02T17:06:17.669Z,-87
2023-02-02T17:08:48.100Z,-86
2023-02-02T17:11:26.208Z,-86
2023-02-02T17:13:55.104Z,-85
2023-02-02T17:16:24.594Z,-86
2023-02-02T17:18:53.372Z,-86
2023-02-02T17:21:24.585Z,-85
2023-02-02T17:23:56.225Z,-86
2023-02-02T17:26:24.659Z,-85
2023-02-02T17:29:00.326Z,-86
2023-02-02T17:31:29.876Z,-86
2023-02-02T17:33:58.770Z,-86
2023-02-02T17:36:27.004Z,-87
2023-02-02T17:38:57.313Z,-86
2023-02-02T17:41:25.709Z,-86
2023-02-02T17:43:54.029Z,-86
2023-02-02T17:46:24.029Z,-87
2023-02-02T17:48:52.519Z,-87
2023-02-02T17:51:20.671Z,-87
2023-02-02T17:53:49.356Z,-87
2023-02-02T17:56:20.908Z,-87
2023-02-02T17:58:49.256Z,-87
2023-02-02T18:01:18.037Z,-87
2023-02-02T18:03:47.907Z,-87
2023-02-02T18:06:16.268Z,-87
2023-02-02T18:08:45.638Z,-87
2023-02-02T18:11:16.435Z,-85
2023-02-02T18:13:46.431Z,-85
2023-02-02T18:16:15.638Z,-86
2023-02-02T18:18:49.962Z,-87
2023-02-02T18:21:20.678Z,-84
2023-02-02T18:23:54.559Z,-86
2023-02-02T18:26:24.398Z,-85
2023-02-02T18:28:54.924Z,-85
2023-02-02T18:31:24.567Z,-86
2023-02-02T18:33:53.813Z,-86
2023-02-02T18:36:23.931Z,-85
2023-02-02T18:38:53.942Z,-86
2023-02-02T18:41:24.699Z,-86
2023-02-02T18:43:57.334Z,-85
2023-02-02T18:46:27.128Z,-86
2023-02-02T18:48:56.865Z,-85
2023-02-02T18:51:25.884Z,-85
2023-02-02T18:53:59.841Z,-86
2023-02-02T18:56:29.236Z,-86
2023-02-02T18:58:59.730Z,-86
2023-02-02T19:01:28.709Z,-86
2023-02-02T19:03:59.140Z,-86
2023-02-02T19:06:45.587Z,-86
2023-02-02T19:09:19.774Z,-86
2023-02-02T19:11:50.715Z,-86
2023-02-02T19:14:25.179Z,-86
2023-02-02T19:16:58.310Z,-87
2023-02-02T19:19:31.709Z,-86
2023-02-02T19:22:04.797Z,-85
2023-02-02T19:24:41.132Z,-86
2023-02-02T19:27:18.313Z,-86
2023-02-02T19:29:52.931Z,-87
2023-02-02T19:32:24.988Z,-85
2023-02-02T19:34:58.698Z,-85
2023-02-02T19:37:28.804Z,-84
2023-02-02T19:39:57.689Z,-84
2023-02-02T19:42:26.450Z,-86
2023-02-02T19:44:58.263Z,-88
2023-02-02T19:47:34.161Z,-87
2023-02-02T19:50:14.990Z,-87
2023-02-02T19:52:53.573Z,-87
2023-02-02T19:55:33.344Z,-86
2023-02-02T19:58:13.586Z,-87
2023-02-02T20:00:47.213Z,-85
2023-02-02T20:03:23.047Z,-86
2023-02-02T20:05:54.355Z,-87
2023-02-02T20:08:27.120Z,-87
2023-02-02T20:10:57.089Z,-88
2023-02-02T20:13:34.681Z,-87
2023-02-02T20:16:06.433Z,-87
2023-02-02T20:18:42.436Z,-87
2023-02-02T20:21:21.003Z,-87
2023-02-02T20:23:49.687Z,-87
2023-02-02T20:26:27.367Z,-86
2023-02-02T20:28:56.471Z,-87
2023-02-02T20:31:37.136Z,-86
2023-02-02T20:34:19.800Z,-88
2023-02-02T20:36:49.118Z,-89
2023-02-02T20:39:31.369Z,-89
2023-02-02T20:42:00.252Z,-87
2023-02-02T20:44:29.821Z,-88
2023-02-02T20:47:01.268Z,-87
2023-02-02T20:49:31.761Z,-87
2023-02-02T20:52:02.325Z,-88
2023-02-02T20:54:31.743Z,-89
2023-02-02T20:57:00.159Z,-87
2023-02-02T20:59:29.501Z,-87
2023-02-02T21:01:59.803Z,-87
2023-02-02T21:04:28.571Z,-87
2023-02-02T21:06:59.616Z,-86
2023-02-02T21:09:28.877Z,-87
2023-02-02T21:11:58.277Z,-88
2023-02-02T21:14:27.359Z,-88
2023-02-02T21:17:13.716Z,-87
2023-02-02T21:19:46.229Z,-88
2023-02-02T21:22:17.580Z,-89
2023-02-02T21:24:45.848Z,-87
2023-02-02T21:27:17.172Z,-87
2023-02-02T21:29:45.786Z,-88
2023-02-02T21:32:14.474Z,-89
2023-02-02T21:34:44.684Z,-89
2023-02-02T21:37:15.156Z,-86
2023-02-02T21:39:48.634Z,-86
2023-02-02T21:42:19.636Z,-85
2023-02-02T21:44:52.651Z,-86
2023-02-02T21:47:33.881Z,-85
2023-02-02T21:50:20.004Z,-85
2023-02-02T21:52:48.758Z,-85
2023-02-02T21:55:38.577Z,-85
2023-02-02T21:58:16.611Z,-85
2023-02-02T22:00:45.060Z,-86
2023-02-02T22:03:34.359Z,-84
2023-02-02T22:06:26.768Z,-84
2023-02-02T22:08:59.057Z,-85
2023-02-02T22:11:31.349Z,-84
2023-02-02T22:14:04.301Z,-85
2023-02-02T22:16:41.261Z,-85
2023-02-02T22:19:27.139Z,-85
2023-02-02T22:22:14.148Z,-87
2023-02-02T22:24:43.183Z,-84
2023-02-02T22:27:19.799Z,-86
2023-02-02T22:29:48.164Z,-83
2023-02-02T22:32:16.689Z,-86
2023-02-02T22:34:45.357Z,-86
2023-02-02T22:37:15.871Z,-84
2023-02-02T22:39:44.171Z,-85
2023-02-02T22:42:12.448Z,-86
2023-02-02T22:44:42.110Z,-85
2023-02-02T22:47:10.534Z,-85
